createdAt,value
2023-02-06T00:00:48.454Z,100526.00
2023-02-06T00:03:16.505Z,100533.00
2023-02-06T00:05:44.586Z,100527.00
2023-02-06T00:08:12.640Z,100532.00
2023-02-06T00:10:40.660Z,100528.00
2023-02-06T00:13:08.659Z,100536.00
2023-02-06T00:15:37.009Z,100538.00
2023-02-06T00:18:06.772Z,100537.00
2023-02-06T00:20:34.830Z,100538.00
2023-02-06T00:23:02.910Z,100535.00
2023-02-06T00:25:30.925Z,100546.00
2023-02-06T00:27:58.964Z,100548.00
2023-02-06T00:30:27.056Z,100548.00
2023-02-06T00:32:55.079Z,100548.00
2023-02-06T00:35:24.501Z,100541.00
2023-02-06T00:37:52.519Z,100545.00
2023-02-06T00:40:20.722Z,100549.00
2023-02-06T00:42:48.750Z,100532.00
2023-02-06T00:45:16.922Z,100530.00
2023-02-06T00:47:44.931Z,100523.00
2023-02-06T00:50:13.376Z,100523.00
2023-02-06T00:52:42.819Z,100524.00
2023-02-06T00:55:10.855Z,100529.00
2023-02-06T00:57:38.869Z,100521.00
2023-02-06T01:00:07.735Z,100520.00
2023-02-06T01:02:35.844Z,100502.00
2023-02-06T01:05:03.920Z,100516.00
2023-02-06T01:07:31.976Z,100514.00
2023-02-06T01:10:01.452Z,100511.00
2023-02-06T01:12:29.490Z,100516.00
2023-02-06T01:14:57.513Z,100517.00
2023-02-06T01:17:25.585Z,100522.00
2023-02-06T01:19:53.672Z,100519.00
2023-02-06T01:22:21.691Z,100524.00
2023-02-06T01:24:50.201Z,100527.00
2023-02-06T01:27:19.646Z,100527.00
2023-02-06T01:29:47.678Z,100525.00
2023-02-06T01:32:15.731Z,100536.00
2023-02-06T01:34:43.820Z,100543.00
2023-02-06T01:37:11.878Z,100550.00
2023-02-06T01:39:39.927Z,100539.00
2023-02-06T01:42:07.956Z,100549.00
2023-02-06T01:44:37.383Z,100541.00
2023-02-06T01:47:05.478Z,100549.00
2023-02-06T01:49:36.257Z,100563.00
2023-02-06T01:52:05.734Z,100540.00
2023-02-06T01:54:33.761Z,100533.00
2023-02-06T01:57:03.587Z,100528.00
2023-02-06T01:59:31.598Z,100534.00
2023-02-06T02:02:01.073Z,100523.00
2023-02-06T02:04:29.160Z,100526.00
2023-02-06T02:07:01.534Z,100515.00
2023-02-06T02:09:29.909Z,100513.00
2023-02-06T02:11:57.934Z,100520.00
2023-02-06T02:14:25.971Z,100523.00
2023-02-06T02:17:03.568Z,100526.00
2023-02-06T02:20:05.430Z,100517.00
2023-02-06T02:22:50.135Z,100520.00
2023-02-06T02:25:33.786Z,100517.00
2023-02-06T02:28:35.930Z,100506.00
2023-02-06T02:31:22.841Z,100506.00
2023-02-06T02:34:23.740Z,100515.00
2023-02-06T02:36:53.700Z,100514.00
2023-02-06T02:39:24.272Z,100519.00
2023-02-06T02:41:54.326Z,100521.00
2023-02-06T02:44:26.234Z,100510.00
2023-02-06T02:46:55.247Z,100511.00
2023-02-06T02:49:26.256Z,100511.00
2023-02-06T02:51:55.729Z,100506.00
2023-02-06T02:54:23.746Z,100518.00
2023-02-06T02:56:51.757Z,100511.00
2023-02-06T02:59:23.962Z,100514.00
2023-02-06T03:01:53.982Z,100522.00
2023-02-06T03:04:24.095Z,100513.00
2023-02-06T03:07:01.109Z,100534.00
2023-02-06T03:09:37.898Z,100534.00
2023-02-06T03:12:13.215Z,100533.00
2023-02-06T03:14:42.658Z,100525.00
2023-02-06T03:17:11.638Z,100534.00
2023-02-06T03:19:41.470Z,100526.00
2023-02-06T03:22:13.839Z,100528.00
2023-02-06T03:24:41.883Z,100530.00
2023-02-06T03:27:12.859Z,100532.00
2023-02-06T03:29:40.868Z,100548.00
2023-02-06T03:32:11.756Z,100538.00
2023-02-06T03:34:41.773Z,100527.00
2023-02-06T03:37:09.817Z,100529.00
2023-02-06T03:39:39.201Z,100529.00
2023-02-06T03:42:07.310Z,100532.00
2023-02-06T03:44:36.381Z,100521.00
2023-02-06T03:47:04.441Z,100541.00
2023-02-06T03:49:33.205Z,100553.00
2023-02-06T03:52:03.133Z,100553.00
2023-02-06T03:54:31.170Z,100556.00
2023-02-06T03:57:01.313Z,100561.00
2023-02-06T03:59:29.356Z,100563.00
2023-02-06T04:01:58.063Z,100552.00
2023-02-06T04:04:29.295Z,100531.00
2023-02-06T04:06:57.781Z,100526.00
2023-02-06T04:09:25.778Z,100532.00
2023-02-06T04:11:53.917Z,100525.00
2023-02-06T04:14:23.324Z,100538.00
2023-02-06T04:16:51.348Z,100529.00
2023-02-06T04:19:19.579Z,100546.00
2023-02-06T04:21:47.621Z,100540.00
2023-02-06T04:24:15.646Z,100539.00
2023-02-06T04:26:43.681Z,100545.00
2023-02-06T04:29:12.857Z,100540.00
2023-02-06T04:31:42.266Z,100543.00
2023-02-06T04:34:10.328Z,100553.00
2023-02-06T04:36:38.624Z,100544.00
2023-02-06T04:39:06.814Z,100539.00
2023-02-06T04:41:34.830Z,100532.00
2023-02-06T04:44:02.863Z,100533.00
2023-02-06T04:46:30.874Z,100530.00
2023-02-06T04:49:00.257Z,100544.00
2023-02-06T04:51:28.255Z,100522.00
2023-02-06T04:53:56.292Z,100534.00
2023-02-06T04:56:25.565Z,100532.00
2023-02-06T04:58:53.586Z,100526.00
2023-02-06T05:01:21.683Z,100533.00
2023-02-06T05:03:50.286Z,100535.00
2023-02-06T05:06:19.644Z,100521.00
2023-02-06T05:08:47.808Z,100531.00
2023-02-06T05:11:15.841Z,100527.00
2023-02-06T05:13:43.859Z,100529.00
2023-02-06T05:16:13.744Z,100540.00
2023-02-06T05:18:41.973Z,100536.00
2023-02-06T05:21:10.022Z,100525.00
2023-02-06T05:23:39.379Z,100509.00
2023-02-06T05:26:07.403Z,100510.00
2023-02-06T05:28:35.495Z,100513.00
2023-02-06T05:31:09.872Z,100514.00
2023-02-06T05:33:37.932Z,100520.00
2023-02-06T05:36:07.264Z,100523.00
2023-02-06T05:38:35.290Z,100530.00
2023-02-06T05:41:04.731Z,100541.00
2023-02-06T05:43:33.796Z,100548.00
2023-02-06T05:46:01.920Z,100550.00
2023-02-06T05:48:30.643Z,100541.00
2023-02-06T05:50:58.775Z,100537.00
2023-02-06T05:53:26.778Z,100538.00
2023-02-06T05:55:54.815Z,100538.00
2023-02-06T05:58:24.256Z,100520.00
2023-02-06T06:00:52.474Z,100521.00
2023-02-06T06:03:20.516Z,100525.00
2023-02-06T06:05:48.525Z,100533.00
2023-02-06T06:08:16.629Z,100525.00
2023-02-06T06:10:44.677Z,100537.00
2023-02-06T06:13:12.721Z,100524.00
2023-02-06T06:15:42.308Z,100509.00
2023-02-06T06:18:11.143Z,100511.00
2023-02-06T06:20:39.158Z,100508.00
2023-02-06T06:23:07.200Z,100503.00
2023-02-06T06:25:36.603Z,100496.00
2023-02-06T06:28:04.880Z,100494.00
2023-02-06T06:30:34.855Z,100508.00
2023-02-06T06:33:05.045Z,100517.00
2023-02-06T06:35:33.077Z,100515.00
2023-02-06T06:38:01.084Z,100519.00
2023-02-06T06:40:29.382Z,100541.00
2023-02-06T06:42:57.376Z,100531.00
2023-02-06T06:45:25.410Z,100521.00
2023-02-06T06:47:53.516Z,100533.00
2023-02-06T06:50:22.971Z,100529.00
2023-02-06T06:52:50.971Z,100527.00
2023-02-06T06:55:19.604Z,100533.00
2023-02-06T06:57:47.674Z,100530.00
2023-02-06T07:00:16.900Z,100527.00
2023-02-06T07:02:44.984Z,100531.00
2023-02-06T07:05:13.053Z,100527.00
2023-02-06T07:07:42.440Z,100524.00
2023-02-06T07:10:10.759Z,100530.00
2023-02-06T07:12:38.822Z,100528.00
2023-02-06T07:15:07.596Z,100525.00
2023-02-06T07:17:35.661Z,100523.00
2023-02-06T07:20:03.734Z,100525.00
2023-02-06T07:22:31.760Z,100516.00
2023-02-06T07:25:01.141Z,100519.00
2023-02-06T07:27:29.158Z,100523.00
2023-02-06T07:29:57.155Z,100517.00
2023-02-06T07:32:25.172Z,100522.00
2023-02-06T07:34:53.203Z,100513.00
2023-02-06T07:37:21.243Z,100532.00
2023-02-06T07:39:49.269Z,100520.00
2023-02-06T07:42:18.941Z,100526.00
2023-02-06T07:44:46.945Z,100513.00
2023-02-06T07:47:14.973Z,100516.00
2023-02-06T07:49:42.973Z,100528.00
2023-02-06T07:52:11.005Z,100527.00
2023-02-06T07:54:38.987Z,100535.00
2023-02-06T07:57:07.010Z,100532.00
2023-02-06T07:59:36.421Z,100533.00
2023-02-06T08:02:04.449Z,100528.00
2023-02-06T08:04:35.327Z,100538.00
2023-02-06T08:07:03.396Z,100539.00
2023-02-06T08:09:31.744Z,100531.00
2023-02-06T08:11:59.799Z,100535.00
2023-02-06T08:14:28.569Z,100539.00
2023-02-06T08:16:58.006Z,100529.00
2023-02-06T08:19:26.069Z,100533.00
2023-02-06T08:21:54.093Z,100532.00
2023-02-06T08:24:22.109Z,100527.00
2023-02-06T08:26:50.213Z,100519.00
2023-02-06T08:29:18.218Z,100519.00
2023-02-06T08:31:46.327Z,100518.00
2023-02-06T08:34:15.843Z,100517.00
2023-02-06T08:36:44.015Z,100498.00
2023-02-06T08:39:12.755Z,100491.00
2023-02-06T08:41:41.483Z,100495.00
2023-02-06T08:44:11.881Z,100489.00
2023-02-06T08:46:40.022Z,100492.00
2023-02-06T08:49:09.396Z,100498.00
2023-02-06T08:51:38.790Z,100492.00
2023-02-06T08:54:07.708Z,100472.00
2023-02-06T08:56:36.345Z,100469.00
2023-02-06T08:59:04.465Z,100463.00
2023-02-06T09:01:33.883Z,100464.00
2023-02-06T09:04:02.913Z,100453.00
2023-02-06T09:06:30.957Z,100454.00
2023-02-06T09:09:00.457Z,100464.00
2023-02-06T09:11:28.663Z,100453.00
2023-02-06T09:13:57.318Z,100452.00
2023-02-06T09:16:25.526Z,100444.00
2023-02-06T09:18:54.339Z,100447.00
2023-02-06T09:21:23.481Z,100447.00
2023-02-06T09:23:52.422Z,100444.00
2023-02-06T09:26:23.712Z,100447.00
2023-02-06T09:28:52.961Z,100459.00
2023-02-06T09:31:21.003Z,100446.00
2023-02-06T09:33:49.086Z,100457.00
2023-02-06T09:36:17.953Z,100462.00
2023-02-06T09:38:47.043Z,100446.00
2023-02-06T09:41:18.094Z,100449.00
2023-02-06T09:43:51.254Z,100450.00
2023-02-06T09:46:21.263Z,100454.00
2023-02-06T09:48:49.353Z,100451.00
2023-02-06T09:51:20.473Z,100456.00
2023-02-06T09:53:51.958Z,100428.00
2023-02-06T09:56:23.884Z,100443.00
2023-02-06T09:58:56.933Z,100437.00
2023-02-06T10:01:27.628Z,100444.00
2023-02-06T10:04:10.125Z,100441.00
2023-02-06T10:06:42.009Z,100430.00
2023-02-06T10:09:12.267Z,100430.00
2023-02-06T10:11:45.233Z,100449.00
2023-02-06T10:14:19.212Z,100423.00
2023-02-06T10:16:48.426Z,100429.00
2023-02-06T10:19:18.943Z,100429.00
2023-02-06T10:21:49.448Z,100423.00
2023-02-06T10:24:20.894Z,100419.00
2023-02-06T10:26:49.156Z,100423.00
2023-02-06T10:29:22.545Z,100421.00
2023-02-06T10:32:08.932Z,100426.00
2023-02-06T10:34:45.962Z,100414.00
2023-02-06T10:37:21.196Z,100416.00
2023-02-06T10:40:15.911Z,100414.00
2023-02-06T10:42:51.283Z,100402.00
2023-02-06T10:45:28.125Z,100408.00
2023-02-06T10:47:58.280Z,100398.00
2023-02-06T10:50:28.803Z,100412.00
2023-02-06T10:52:58.543Z,100404.00
2023-02-06T10:55:27.935Z,100394.00
2023-02-06T10:58:01.349Z,100387.00
2023-02-06T11:00:30.742Z,100380.00
2023-02-06T11:03:07.427Z,100386.00
2023-02-06T11:05:36.663Z,100384.00
2023-02-06T11:08:10.746Z,100368.00
2023-02-06T11:10:39.236Z,100370.00
2023-02-06T11:13:08.460Z,100365.00
2023-02-06T11:15:41.287Z,100360.00
2023-02-06T11:18:11.064Z,100356.00
2023-02-06T11:20:39.717Z,100350.00
2023-02-06T11:23:18.583Z,100357.00
2023-02-06T11:25:46.783Z,100344.00
2023-02-06T11:28:16.368Z,100266.00
2023-02-06T11:30:55.884Z,100318.00
2023-02-06T11:33:26.388Z,100325.00
2023-02-06T11:35:55.784Z,100313.00
2023-02-06T11:38:25.074Z,100331.00
2023-02-06T11:40:57.483Z,100336.00
2023-02-06T11:43:26.364Z,100289.00
2023-02-06T11:46:15.443Z,100334.00
2023-02-06T11:48:44.542Z,100319.00
2023-02-06T11:51:13.836Z,100334.00
2023-02-06T11:53:56.009Z,100297.00
2023-02-06T11:56:24.015Z,100330.00
2023-02-06T11:59:02.858Z,100316.00
2023-02-06T12:01:43.032Z,100292.00
2023-02-06T12:04:23.558Z,100295.00
2023-02-06T12:06:54.444Z,100297.00
2023-02-06T12:09:22.810Z,100307.00
2023-02-06T12:11:52.996Z,100274.00
2023-02-06T12:14:22.960Z,100305.00
2023-02-06T12:16:52.517Z,100282.00
2023-02-06T12:19:22.598Z,100314.00
2023-02-06T12:21:51.600Z,100325.00
2023-02-06T12:24:26.870Z,100302.00
2023-02-06T12:26:55.240Z,100284.00
2023-02-06T12:29:25.668Z,100278.00
2023-02-06T12:31:58.528Z,100265.00
2023-02-06T12:34:31.708Z,100228.00
2023-02-06T12:37:10.987Z,100206.00
2023-02-06T12:39:38.924Z,100298.00
2023-02-06T12:42:17.135Z,100275.00
2023-02-06T12:44:47.958Z,100284.00
2023-02-06T12:47:20.038Z,100273.00
2023-02-06T12:49:52.292Z,100283.00
2023-02-06T12:52:23.183Z,100271.00
2023-02-06T12:54:52.425Z,100274.00
2023-02-06T12:57:22.170Z,100265.00
2023-02-06T13:00:19.566Z,100273.00
2023-02-06T13:03:04.591Z,100278.00
2023-02-06T13:05:35.203Z,100230.00
2023-02-06T13:08:08.187Z,100226.00
2023-02-06T13:10:36.414Z,100276.00
2023-02-06T13:13:04.569Z,100262.00
2023-02-06T13:15:35.752Z,100287.00
2023-02-06T13:18:20.248Z,100288.00
2023-02-06T13:21:15.547Z,100289.00
2023-02-06T13:23:50.342Z,100286.00
2023-02-06T13:26:18.357Z,100284.00
2023-02-06T13:29:14.150Z,100292.00
2023-02-06T13:31:42.212Z,100288.00
2023-02-06T13:34:15.908Z,100276.00
2023-02-06T13:36:52.440Z,100278.00
2023-02-06T13:39:33.805Z,100300.00
2023-02-06T13:42:29.676Z,100294.00
2023-02-06T13:44:57.633Z,100280.00
2023-02-06T13:47:44.255Z,100232.00
2023-02-06T13:50:29.393Z,100269.00
2023-02-06T13:53:14.515Z,100281.00
2023-02-06T13:55:52.162Z,100294.00
2023-02-06T13:58:30.829Z,100268.00
2023-02-06T14:00:58.805Z,100280.00
2023-02-06T14:03:27.493Z,100276.00
2023-02-06T14:06:00.314Z,100195.00
2023-02-06T14:08:31.465Z,100197.00
2023-02-06T14:11:09.646Z,100287.00
2023-02-06T14:13:45.152Z,100257.00
2023-02-06T14:16:22.449Z,100295.00
2023-02-06T14:18:53.542Z,100297.00
2023-02-06T14:21:30.017Z,100229.00
2023-02-06T14:24:07.357Z,100289.00
2023-02-06T14:26:39.285Z,100225.00
2023-02-06T14:29:16.672Z,100269.00
2023-02-06T14:31:54.174Z,100288.00
2023-02-06T14:34:29.581Z,100280.00
2023-02-06T14:37:07.850Z,100281.00
2023-02-06T14:39:47.172Z,100279.00
2023-02-06T14:42:20.342Z,100282.00
2023-02-06T14:44:51.328Z,100248.00
2023-02-06T14:47:20.325Z,100296.00
2023-02-06T14:49:48.248Z,100297.00
2023-02-06T14:52:20.034Z,100274.00
2023-02-06T14:54:47.995Z,100316.00
2023-02-06T14:57:18.599Z,100197.00
2023-02-06T14:59:57.885Z,100282.00
2023-02-06T15:02:31.508Z,100285.00
2023-02-06T15:04:59.761Z,100310.00
2023-02-06T15:07:31.888Z,100210.00
2023-02-06T15:10:03.025Z,100211.00
2023-02-06T15:12:32.180Z,100257.00
2023-02-06T15:15:02.830Z,100301.00
2023-02-06T15:17:31.461Z,100243.00
2023-02-06T15:20:15.938Z,100282.00
2023-02-06T15:22:45.263Z,100308.00
2023-02-06T15:25:23.619Z,100279.00
2023-02-06T15:27:51.633Z,100300.00
2023-02-06T15:30:20.390Z,100311.00
2023-02-06T15:32:49.572Z,100223.00
2023-02-06T15:35:21.872Z,100313.00
2023-02-06T15:37:51.280Z,100312.00
2023-02-06T15:40:20.936Z,100298.00
2023-02-06T15:42:48.921Z,100267.00
2023-02-06T15:45:19.047Z,100250.00
2023-02-06T15:47:47.068Z,100286.00
2023-02-06T15:50:18.240Z,100237.00
2023-02-06T15:52:47.554Z,100300.00
2023-02-06T15:55:30.475Z,100282.00
2023-02-06T15:57:59.116Z,100302.00
2023-02-06T16:00:28.574Z,100321.00
2023-02-06T16:02:58.311Z,100315.00
2023-02-06T16:05:28.033Z,100311.00
2023-02-06T16:07:56.224Z,100311.00
2023-02-06T16:10:25.423Z,100320.00
2023-02-06T16:12:55.162Z,100310.00
2023-02-06T16:15:29.639Z,100315.00
2023-02-06T16:17:58.358Z,100318.00
2023-02-06T16:20:32.492Z,100332.00
2023-02-06T16:23:19.918Z,100330.00
2023-02-06T16:25:48.097Z,100334.00
2023-02-06T16:28:22.906Z,100319.00
2023-02-06T16:30:55.114Z,100332.00
2023-02-06T16:33:28.389Z,100332.00
2023-02-06T16:35:56.456Z,100325.00
2023-02-06T16:38:24.474Z,100323.00
2023-02-06T16:40:55.566Z,100323.00
2023-02-06T16:43:24.978Z,100325.00
2023-02-06T16:45:53.003Z,100324.00
2023-02-06T16:48:21.069Z,100335.00
2023-02-06T16:50:49.112Z,100333.00
2023-02-06T16:53:20.290Z,100338.00
2023-02-06T16:55:48.352Z,100335.00
2023-02-06T16:58:18.083Z,100314.00
2023-02-06T17:00:47.938Z,100346.00
2023-02-06T17:03:17.451Z,100342.00
2023-02-06T17:05:45.942Z,100346.00
2023-02-06T17:08:18.060Z,100341.00
2023-02-06T17:10:46.768Z,100360.00
2023-02-06T17:13:15.989Z,100360.00
2023-02-06T17:15:44.151Z,100363.00
2023-02-06T17:18:15.809Z,100352.00
2023-02-06T17:20:44.773Z,100366.00
2023-02-06T17:23:12.832Z,100354.00
2023-02-06T17:25:41.095Z,100349.00
2023-02-06T17:28:09.271Z,100348.00
2023-02-06T17:30:37.983Z,100346.00
2023-02-06T17:33:06.407Z,100349.00
2023-02-06T17:35:36.902Z,100345.00
2023-02-06T17:38:05.048Z,100320.00
2023-02-06T17:40:33.962Z,100355.00
2023-02-06T17:43:04.508Z,100355.00
2023-02-06T17:45:32.554Z,100359.00
2023-02-06T17:48:00.726Z,100359.00
2023-02-06T17:50:29.130Z,100355.00
2023-02-06T17:53:00.323Z,100352.00
2023-02-06T17:55:28.497Z,100351.00
2023-02-06T17:57:57.561Z,100363.00
2023-02-06T18:00:26.141Z,100360.00
2023-02-06T18:02:54.629Z,100361.00
2023-02-06T18:05:22.974Z,100360.00
2023-02-06T18:07:51.878Z,100362.00
2023-02-06T18:10:22.432Z,100363.00
2023-02-06T18:12:50.544Z,100362.00
2023-02-06T18:15:18.572Z,100373.00
2023-02-06T18:17:46.660Z,100371.00
2023-02-06T18:20:16.992Z,100374.00
2023-02-06T18:22:45.102Z,100381.00
2023-02-06T18:25:15.308Z,100387.00
2023-02-06T18:27:47.708Z,100380.00
2023-02-06T18:30:17.259Z,100391.00
2023-02-06T18:32:46.091Z,100390.00
2023-02-06T18:35:14.922Z,100384.00
2023-02-06T18:37:43.277Z,100393.00
2023-02-06T18:40:12.298Z,100387.00
2023-02-06T18:42:54.694Z,100388.00
2023-02-06T18:45:25.006Z,100394.00
2023-02-06T18:47:53.196Z,100395.00
2023-02-06T18:50:22.070Z,100378.00
2023-02-06T18:52:50.429Z,100400.00
2023-02-06T18:55:18.589Z,100394.00
2023-02-06T18:57:46.719Z,100403.00
2023-02-06T19:00:15.725Z,100396.00
2023-02-06T19:02:45.180Z,100400.00
2023-02-06T19:05:13.526Z,100400.00
2023-02-06T19:07:41.723Z,100404.00
2023-02-06T19:10:10.977Z,100387.00
2023-02-06T19:12:39.251Z,100396.00
2023-02-06T19:15:08.257Z,100391.00
2023-02-06T19:17:36.378Z,100404.00
2023-02-06T19:20:07.779Z,100400.00
2023-02-06T19:22:36.043Z,100405.00
2023-02-06T19:25:04.199Z,100401.00
2023-02-06T19:27:32.272Z,100413.00
2023-02-06T19:30:00.471Z,100406.00
2023-02-06T19:32:29.298Z,100391.00
2023-02-06T19:34:57.933Z,100407.00
2023-02-06T19:37:27.387Z,100395.00
2023-02-06T19:39:55.451Z,100391.00
2023-02-06T19:42:23.532Z,100396.00
2023-02-06T19:44:53.880Z,100390.00
2023-02-06T19:47:22.232Z,100389.00
2023-02-06T19:49:52.232Z,100395.00
2023-02-06T19:52:20.414Z,100391.00
2023-02-06T19:54:49.873Z,100404.00
2023-02-06T19:57:19.429Z,100405.00
2023-02-06T19:59:47.821Z,100404.00
2023-02-06T20:02:16.482Z,100413.00
2023-02-06T20:04:45.367Z,100413.00
2023-02-06T20:07:13.460Z,100413.00
2023-02-06T20:09:42.731Z,100407.00
2023-02-06T20:12:12.540Z,100408.00
2023-02-06T20:14:40.871Z,100422.00
2023-02-06T20:17:08.975Z,100413.00
2023-02-06T20:19:37.128Z,100409.00
2023-02-06T20:22:05.522Z,100413.00
2023-02-06T20:24:33.698Z,100409.00
2023-02-06T20:27:02.707Z,100416.00
2023-02-06T20:29:33.803Z,100405.00
2023-02-06T20:32:02.046Z,100393.00
2023-02-06T20:34:31.024Z,100403.00
2023-02-06T20:36:59.365Z,100420.00
2023-02-06T20:39:27.675Z,100410.00
2023-02-06T20:41:55.776Z,100436.00
2023-02-06T20:44:23.767Z,100371.00
2023-02-06T20:46:53.368Z,100417.00
2023-02-06T20:49:22.365Z,100413.00
2023-02-06T20:51:50.534Z,100373.00
2023-02-06T20:54:18.921Z,100422.00
2023-02-06T20:56:48.333Z,100429.00
2023-02-06T20:59:17.349Z,100430.00
2023-02-06T21:01:45.406Z,100379.00
2023-02-06T21:04:16.681Z,100422.00
2023-02-06T21:06:44.896Z,100455.00
2023-02-06T21:09:12.880Z,100349.00
2023-02-06T21:11:41.918Z,100436.00
2023-02-06T21:14:10.229Z,100380.00
2023-02-06T21:16:38.753Z,100466.00
2023-02-06T21:19:07.334Z,100457.00
2023-02-06T21:21:37.232Z,100466.00
2023-02-06T21:24:05.711Z,100388.00
2023-02-06T21:26:33.766Z,100470.00
2023-02-06T21:29:02.468Z,100465.00
2023-02-06T21:31:36.054Z,100474.00
2023-02-06T21:34:07.245Z,100470.00
2023-02-06T21:36:37.651Z,100493.00
2023-02-06T21:39:05.951Z,100424.00
2023-02-06T21:41:33.976Z,100479.00
2023-02-06T21:44:01.933Z,100468.00
2023-02-06T21:46:30.943Z,100482.00
2023-02-06T21:48:59.019Z,100498.00
2023-02-06T21:51:27.086Z,100437.00
2023-02-06T21:53:56.486Z,100450.00
2023-02-06T21:56:25.806Z,100476.00
2023-02-06T21:58:53.852Z,100499.00
2023-02-06T22:01:23.294Z,100479.00
2023-02-06T22:03:51.286Z,100453.00
2023-02-06T22:06:20.060Z,100475.00
2023-02-06T22:08:51.852Z,100490.00
2023-02-06T22:11:22.460Z,100492.00
2023-02-06T22:13:50.642Z,100491.00
2023-02-06T22:16:19.838Z,100496.00
2023-02-06T22:18:47.951Z,100500.00
2023-02-06T22:21:17.384Z,100498.00
2023-02-06T22:23:45.848Z,100489.00
2023-02-06T22:26:15.627Z,100502.00
2023-02-06T22:28:45.202Z,100501.00
2023-02-06T22:31:14.295Z,100522.00
2023-02-06T22:33:42.531Z,100532.00
2023-02-06T22:36:12.104Z,100522.00
2023-02-06T22:38:40.330Z,100522.00
2023-02-06T22:41:09.626Z,100535.00
2023-02-06T22:43:38.304Z,100548.00
2023-02-06T22:46:08.072Z,100548.00
2023-02-06T22:48:36.653Z,100539.00
2023-02-06T22:51:05.971Z,100536.00
2023-02-06T22:53:34.096Z,100539.00
2023-02-06T22:56:20.518Z,100535.00
2023-02-06T22:58:48.609Z,100557.00
2023-02-06T23:01:18.934Z,100552.00
2023-02-06T23:03:47.130Z,100547.00
2023-02-06T23:06:16.106Z,100552.00
2023-02-06T23:08:47.446Z,100568.00
2023-02-06T23:11:15.633Z,100566.00
2023-02-06T23:13:43.873Z,100555.00
2023-02-06T23:16:11.979Z,100557.00
2023-02-06T23:18:41.420Z,100558.00
2023-02-06T23:21:11.141Z,100560.00
2023-02-06T23:23:39.185Z,100567.00
2023-02-06T23:26:10.100Z,100566.00
2023-02-06T23:28:38.505Z,100578.00
2023-02-06T23:31:06.953Z,100575.00
2023-02-06T23:33:35.332Z,100573.00
2023-02-06T23:36:05.829Z,100571.00
2023-02-06T23:38:33.974Z,100573.00
2023-02-06T23:41:07.450Z,100577.00
2023-02-06T23:43:35.722Z,100556.00
2023-02-06T23:46:03.970Z,100553.00
2023-02-06T23:48:32.320Z,100561.00
2023-02-06T23:51:03.361Z,100563.00
2023-02-06T23:53:32.802Z,100567.00
2023-02-06T23:56:00.906Z,100563.00
2023-02-06T23:58:29.040Z,100554.00
